Raton, NM

8:45 AM MDT on September 20, 2014 (GMT -0600)
Near Historic Downtown | Change Station
CLOSE
Current Station
Personal Weather Station
Location: Raton, NM
Elevation: 6709 ft
Nearby Weather Stations

Elev 6709 ft 36.90 °N, 104.44 °W | Updated 11 minutes ago

Partly Cloudy
Partly Cloudy
62.3 °F
Feels Like 62.3 °F
N
0.0
Wind Variable Wind from SSW

Today
High -- | Low -- °F
--% Chance of Precip.
Yesterday
High -- | Low -- °F
Precip. -- in
6:44 AM 6:58 PM
Waning Crescent, 12% visible
Pressure 29.98 in
Visibility 10.0 miles
Clouds Clear
Dew Point 52 °F
Humidity 68%
Rainfall 0.00 in
Snow Depth 0 in , 0 in , 3 in
UV 1 out of 12
Pollen 5.60 out of 12
Air Quality Not available.
Flu Activity Not available.
METAR KRTN 201353Z AUTO 00000KT 10SM CLR 16/13 A3021 RMK AO2 SLP152 T01610133

More Conditions Fewer Conditions

Pressure 29.98 in
Visibility 10.0 miles
Clouds Clear
Dew Point 52 °F
Humidity 68%
Rainfall 0.00 in
Snow Depth 0 in , 0 in , 3 in
UV 1 out of 12
Pollen 5.60 out of 12
Air Quality Not available.
Flu Activity Not available.
METAR KRTN 201353Z AUTO 00000KT 10SM CLR 16/13 A3021 RMK AO2 SLP152 T01610133

More Conditions Fewer Conditions

10-Day Weather Forecast

Almanac

Astronomy

Sep. 20, 2014 Rise Set
Actual Time 6:44 AM MDT 6:58 PM MDT
Civil Twilight 6:18 AM MDT 7:24 PM MDT
Nautical Twilight 5:48 AM MDT 7:54 PM MDT
Astronomical Twilight 5:17 AM MDT 8:25 PM MDT
Moon 3:30 AM MDT 5:00 PM MDT
Length of Visible Light 13h 05m
Length of Day
12h 13m
Tomorrow will be 2m 19s shorter.
Waning Crescent, 12% of the Moon is Illuminated
Today
Waning Crescent
Sep 24
New
Oct 1
First Quarter
Oct 8
Full
Oct 15
Last Quarter

Today's Extremes

State Highs State Lows

Community

WunderPhotos

Upload Photos

1,754,872 photos uploaded!

WunderBlogs® & News

Nearby

Snow Depth

Station Depth Elevation
Quemazon 0 in 9500 ft
Rice Park 0 in 8460 ft
Wesner Springs 3 in 11120 ft
Silver Creek Divide 2 in 9000 ft
Signal Peak 1 in 8360 ft

Earthquake Activity

City Distance Mag. Time & Date
No recent earthquake activity has been reported nearby.
Minimum magnitude displayed is 2.5.

Coastal Water Temperatures

Place Temperature
No Stations Reporting

Nearby Weather Stations